sensor_id;sensor_type;location;lat;lon;timestamp;pressure;altitude;pressure_sealevel;temperature;humidity
72086;BME280;64750;52.134;5.424;2023-02-22T00:01:25;101766.56;;;7.81;83.97
72086;BME280;64750;52.134;5.424;2023-02-22T00:04:03;101761.47;;;7.76;84.16
72086;BME280;64750;52.134;5.424;2023-02-22T00:06:30;101769.31;;;7.76;83.90
72086;BME280;64750;52.134;5.424;2023-02-22T00:08:57;101771.03;;;7.77;84.01
72086;BME280;64750;52.134;5.424;2023-02-22T00:11:25;101766.63;;;7.78;83.62
72086;BME280;64750;52.134;5.424;2023-02-22T00:13:51;101764.03;;;7.78;83.94
72086;BME280;64750;52.134;5.424;2023-02-22T00:16:23;101766.56;;;7.79;83.75
72086;BME280;64750;52.134;5.424;2023-02-22T00:18:50;101766.63;;;7.78;83.72
72086;BME280;64750;52.134;5.424;2023-02-22T00:21:18;101765.78;;;7.77;83.85
72086;BME280;64750;52.134;5.424;2023-02-22T00:23:45;101756.13;;;7.79;84.03
72086;BME280;64750;52.134;5.424;2023-02-22T00:26:14;101759.59;;;7.80;83.89
72086;BME280;64750;52.134;5.424;2023-02-22T00:28:49;101763.97;;;7.79;84.06
72086;BME280;64750;52.134;5.424;2023-02-22T00:31:16;101761.34;;;7.79;83.97
72086;BME280;64750;52.134;5.424;2023-02-22T00:33:43;101764.91;;;7.78;83.79
72086;BME280;64750;52.134;5.424;2023-02-22T00:36:11;101765.78;;;7.77;84.22
72086;BME280;64750;52.134;5.424;2023-02-22T00:38:39;101763.25;;;7.74;84.08
72086;BME280;64750;52.134;5.424;2023-02-22T00:41:05;101766.75;;;7.75;84.10
72086;BME280;64750;52.134;5.424;2023-02-22T00:43:32;101758.00;;;7.76;84.47
72086;BME280;64750;52.134;5.424;2023-02-22T00:45:59;101764.06;;;7.76;84.30
72086;BME280;64750;52.134;5.424;2023-02-22T00:48:26;101764.06;;;7.76;84.05
72086;BME280;64750;52.134;5.424;2023-02-22T00:50:53;101758.84;;;7.76;84.24
72086;BME280;64750;52.134;5.424;2023-02-22T00:53:22;101755.41;;;7.74;84.28
72086;BME280;64750;52.134;5.424;2023-02-22T00:55:49;101747.63;;;7.72;84.12
72086;BME280;64750;52.134;5.424;2023-02-22T00:58:16;101742.50;;;7.69;83.80
72086;BME280;64750;52.134;5.424;2023-02-22T01:00:43;101739.94;;;7.68;84.09
72086;BME280;64750;52.134;5.424;2023-02-22T01:03:12;101742.59;;;7.66;83.94
72086;BME280;64750;52.134;5.424;2023-02-22T01:05:40;101739.28;;;7.61;83.72
72086;BME280;64750;52.134;5.424;2023-02-22T01:08:09;101730.47;;;7.64;83.87
72086;BME280;64750;52.134;5.424;2023-02-22T01:10:37;101731.28;;;7.66;84.00
72086;BME280;64750;52.134;5.424;2023-02-22T01:13:05;101729.47;;;7.68;83.86
72086;BME280;64750;52.134;5.424;2023-02-22T01:15:36;101732.03;;;7.69;84.06
72086;BME280;64750;52.134;5.424;2023-02-22T01:18:03;101728.53;;;7.69;83.91
72086;BME280;64750;52.134;5.424;2023-02-22T01:20:30;101727.75;;;7.67;83.86
72086;BME280;64750;52.134;5.424;2023-02-22T01:22:59;101728.66;;;7.66;84.08
72086;BME280;64750;52.134;5.424;2023-02-22T01:25:29;101722.53;;;7.67;84.12
72086;BME280;64750;52.134;5.424;2023-02-22T01:27:57;101719.97;;;7.65;84.11
72086;BME280;64750;52.134;5.424;2023-02-22T01:30:27;101725.19;;;7.65;83.98
72086;BME280;64750;52.134;5.424;2023-02-22T01:32:54;101720.00;;;7.64;84.10
72086;BME280;64750;52.134;5.424;2023-02-22T01:35:24;101713.91;;;7.63;84.18
72086;BME280;64750;52.134;5.424;2023-02-22T01:37:50;101719.09;;;7.65;84.32
72086;BME280;64750;52.134;5.424;2023-02-22T01:40:24;101723.44;;;7.66;84.24
72086;BME280;64750;52.134;5.424;2023-02-22T01:42:52;101709.50;;;7.65;83.98
72086;BME280;64750;52.134;5.424;2023-02-22T01:48:29;101700.00;;;7.63;84.56
72086;BME280;64750;52.134;5.424;2023-02-22T01:51:01;101698.28;;;7.62;83.95
72086;BME280;64750;52.134;5.424;2023-02-22T01:53:35;101694.09;;;7.56;84.06
72086;BME280;64750;52.134;5.424;2023-02-22T01:56:03;101699.25;;;7.59;84.05
72086;BME280;64750;52.134;5.424;2023-02-22T01:58:32;101708.84;;;7.59;84.30
72086;BME280;64750;52.134;5.424;2023-02-22T02:00:59;101699.31;;;7.56;84.36
72086;BME280;64750;52.134;5.424;2023-02-22T02:03:32;101704.78;;;7.50;83.63
72086;BME280;64750;52.134;5.424;2023-02-22T02:06:03;101696.97;;;7.48;83.75
72086;BME280;64750;52.134;5.424;2023-02-22T02:11:20;101691.84;;;7.45;83.55
72086;BME280;64750;52.134;5.424;2023-02-22T02:13:49;101690.94;;;7.46;83.48
72086;BME280;64750;52.134;5.424;2023-02-22T02:16:17;101690.13;;;7.44;83.22
72086;BME280;64750;52.134;5.424;2023-02-22T02:18:44;101681.47;;;7.42;82.96
72086;BME280;64750;52.134;5.424;2023-02-22T02:30:42;101661.63;;;7.36;83.02
72086;BME280;64750;52.134;5.424;2023-02-22T02:33:32;101673.03;;;7.34;82.94
72086;BME280;64750;52.134;5.424;2023-02-22T02:36:09;101672.97;;;7.35;82.86
72086;BME280;64750;52.134;5.424;2023-02-22T02:38:58;101662.63;;;7.32;83.02
72086;BME280;64750;52.134;5.424;2023-02-22T02:41:33;101650.41;;;7.33;83.10
72086;BME280;64750;52.134;5.424;2023-02-22T02:44:07;101646.88;;;7.34;82.67
72086;BME280;64750;52.134;5.424;2023-02-22T02:47:00;101648.59;;;7.35;82.80
72086;BME280;64750;52.134;5.424;2023-02-22T02:49:35;101648.69;;;7.32;82.97
72086;BME280;64750;52.134;5.424;2023-02-22T02:52:04;101643.47;;;7.32;83.11
72086;BME280;64750;52.134;5.424;2023-02-22T02:54:32;101642.69;;;7.30;82.64
72086;BME280;64750;52.134;5.424;2023-02-22T02:56:59;101638.34;;;7.29;82.97
72086;BME280;64750;52.134;5.424;2023-02-22T02:59:34;101636.63;;;7.28;82.63
72086;BME280;64750;52.134;5.424;2023-02-22T03:21:28;101625.94;;;7.09;82.04
72086;BME280;64750;52.134;5.424;2023-02-22T03:24:05;101626.88;;;7.06;81.77
72086;BME280;64750;52.134;5.424;2023-02-22T03:26:40;101623.47;;;7.04;82.07
72086;BME280;64750;52.134;5.424;2023-02-22T03:29:10;101615.63;;;7.04;82.04
72086;BME280;64750;52.134;5.424;2023-02-22T03:31:48;101621.75;;;7.03;81.84
72086;BME280;64750;52.134;5.424;2023-02-22T03:34:21;101616.53;;;7.03;81.93
72086;BME280;64750;52.134;5.424;2023-02-22T03:36:55;101620.88;;;7.02;82.04
72086;BME280;64750;52.134;5.424;2023-02-22T03:39:25;101610.44;;;7.02;81.79
72086;BME280;64750;52.134;5.424;2023-02-22T03:42:00;101615.66;;;7.02;82.01
72086;BME280;64750;52.134;5.424;2023-02-22T03:44:31;101612.31;;;6.99;82.13
72086;BME280;64750;52.134;5.424;2023-02-22T03:47:04;101611.41;;;7.00;82.03
72086;BME280;64750;52.134;5.424;2023-02-22T03:52:02;101604.47;;;6.99;82.27
72086;BME280;64750;52.134;5.424;2023-02-22T03:54:30;101600.09;;;6.99;82.27
72086;BME280;64750;52.134;5.424;2023-02-22T03:57:05;101602.78;;;6.98;81.88
72086;BME280;64750;52.134;5.424;2023-02-22T03:59:33;101592.31;;;6.98;82.10
72086;BME280;64750;52.134;5.424;2023-02-22T04:02:00;101588.88;;;6.96;82.16
72086;BME280;64750;52.134;5.424;2023-02-22T04:04:27;101587.16;;;6.95;82.31
72086;BME280;64750;52.134;5.424;2023-02-22T04:06:53;101590.59;;;6.97;82.06
72086;BME280;64750;52.134;5.424;2023-02-22T04:09:20;101589.75;;;6.96;82.05
72086;BME280;64750;52.134;5.424;2023-02-22T04:11:46;101585.38;;;6.97;81.99
72086;BME280;64750;52.134;5.424;2023-02-22T04:14:14;101584.56;;;6.95;82.18
72086;BME280;64750;52.134;5.424;2023-02-22T04:16:40;101590.78;;;6.90;82.01
72086;BME280;64750;52.134;5.424;2023-02-22T04:19:07;101583.84;;;6.89;82.28
72086;BME280;64750;52.134;5.424;2023-02-22T04:21:33;101579.59;;;6.87;82.31
72086;BME280;64750;52.134;5.424;2023-02-22T04:23:59;101582.38;;;6.82;82.58
72086;BME280;64750;52.134;5.424;2023-02-22T04:26:26;101576.25;;;6.82;82.32
72086;BME280;64750;52.134;5.424;2023-02-22T04:28:52;101578.09;;;6.80;82.80
72086;BME280;64750;52.134;5.424;2023-02-22T04:31:19;101579.84;;;6.79;82.67
72086;BME280;64750;52.134;5.424;2023-02-22T04:33:46;101573.72;;;6.80;82.46
72086;BME280;64750;52.134;5.424;2023-02-22T04:36:12;101557.19;;;6.80;82.58
72086;BME280;64750;52.134;5.424;2023-02-22T04:38:41;101558.03;;;6.80;82.52
72086;BME280;64750;52.134;5.424;2023-02-22T04:41:08;101559.69;;;6.83;82.62
72086;BME280;64750;52.134;5.424;2023-02-22T04:43:34;101555.38;;;6.82;82.85
72086;BME280;64750;52.134;5.424;2023-02-22T04:46:01;101558.91;;;6.81;82.99
72086;BME280;64750;52.134;5.424;2023-02-22T04:48:27;101554.56;;;6.80;82.93
72086;BME280;64750;52.134;5.424;2023-02-22T04:50:54;101552.03;;;6.78;82.87
72086;BME280;64750;52.134;5.424;2023-02-22T04:53:20;101546.88;;;6.75;82.64
72086;BME280;64750;52.134;5.424;2023-02-22T04:55:46;101539.22;;;6.70;82.95
72086;BME280;64750;52.134;5.424;2023-02-22T04:58:13;101532.16;;;6.72;83.05
72086;BME280;64750;52.134;5.424;2023-02-22T05:00:39;101533.94;;;6.72;82.83
72086;BME280;64750;52.134;5.424;2023-02-22T05:03:06;101524.25;;;6.74;82.82
72086;BME280;64750;52.134;5.424;2023-02-22T05:05:32;101531.31;;;6.72;83.17
72086;BME280;64750;52.134;5.424;2023-02-22T05:07:58;101523.56;;;6.69;83.05
72086;BME280;64750;52.134;5.424;2023-02-22T05:10:25;101528.78;;;6.69;82.91
72086;BME280;64750;52.134;5.424;2023-02-22T05:12:51;101520.00;;;6.71;83.28
72086;BME280;64750;52.134;5.424;2023-02-22T05:15:20;101517.31;;;6.75;83.50
72086;BME280;64750;52.134;5.424;2023-02-22T05:17:46;101514.63;;;6.76;83.37
72086;BME280;64750;52.134;5.424;2023-02-22T05:20:39;101513.03;;;6.72;83.09
72086;BME280;64750;52.134;5.424;2023-02-22T05:23:06;101515.69;;;6.70;83.40
72086;BME280;64750;52.134;5.424;2023-02-22T05:25:32;101514.03;;;6.68;83.06
72086;BME280;64750;52.134;5.424;2023-02-22T05:28:07;101509.72;;;6.67;83.20
72086;BME280;64750;52.134;5.424;2023-02-22T05:30:34;101506.28;;;6.65;83.60
72086;BME280;64750;52.134;5.424;2023-02-22T05:33:01;101510.72;;;6.63;83.56
72086;BME280;64750;52.134;5.424;2023-02-22T05:35:28;101500.28;;;6.63;83.50
72086;BME280;64750;52.134;5.424;2023-02-22T05:37:54;101508.13;;;6.63;83.94
72086;BME280;64750;52.134;5.424;2023-02-22T05:40:23;101502.78;;;6.66;83.90
72086;BME280;64750;52.134;5.424;2023-02-22T05:42:50;101499.28;;;6.67;83.86
72086;BME280;64750;52.134;5.424;2023-02-22T05:45:19;101498.41;;;6.66;83.68
72086;BME280;64750;52.134;5.424;2023-02-22T05:47:46;101497.56;;;6.66;84.08
72086;BME280;64750;52.134;5.424;2023-02-22T05:50:13;101500.22;;;6.64;83.99
72086;BME280;64750;52.134;5.424;2023-02-22T05:52:40;101499.34;;;6.64;84.25
72086;BME280;64750;52.134;5.424;2023-02-22T05:55:08;101495.09;;;6.61;84.44
72086;BME280;64750;52.134;5.424;2023-02-22T05:57:35;101499.41;;;6.62;84.45
72086;BME280;64750;52.134;5.424;2023-02-22T06:00:04;101490.72;;;6.62;84.63
72086;BME280;64750;52.134;5.424;2023-02-22T06:02:32;101488.91;;;6.64;84.57
72086;BME280;64750;52.134;5.424;2023-02-22T06:04:59;101479.38;;;6.63;84.51
72086;BME280;64750;52.134;5.424;2023-02-22T06:07:25;101475.00;;;6.63;84.51
72086;BME280;64750;52.134;5.424;2023-02-22T06:09:52;101481.13;;;6.62;84.64
72086;BME280;64750;52.134;5.424;2023-02-22T06:12:18;101475.06;;;6.62;84.86
72086;BME280;64750;52.134;5.424;2023-02-22T06:14:45;101478.56;;;6.61;84.87
72086;BME280;64750;52.134;5.424;2023-02-22T06:17:13;101475.97;;;6.61;84.84
72086;BME280;64750;52.134;5.424;2023-02-22T06:19:40;101470.81;;;6.57;84.91
72086;BME280;64750;52.134;5.424;2023-02-22T06:22:06;101462.13;;;6.57;85.31
72086;BME280;64750;52.134;5.424;2023-02-22T06:24:33;101463.91;;;6.56;85.45
72086;BME280;64750;52.134;5.424;2023-02-22T06:27:00;101472.66;;;6.55;85.48
72086;BME280;64750;52.134;5.424;2023-02-22T06:29:28;101478.78;;;6.54;85.48
72086;BME280;64750;52.134;5.424;2023-02-22T06:31:54;101483.16;;;6.54;85.39
72086;BME280;64750;52.134;5.424;2023-02-22T06:34:21;101484.88;;;6.53;85.38
72086;BME280;64750;52.134;5.424;2023-02-22T06:36:48;101479.66;;;6.53;85.97
72086;BME280;64750;52.134;5.424;2023-02-22T06:39:15;101478.78;;;6.54;85.56
72086;BME280;64750;52.134;5.424;2023-02-22T06:41:42;101475.34;;;6.52;85.81
72086;BME280;64750;52.134;5.424;2023-02-22T06:44:09;101473.75;;;6.48;85.96
72086;BME280;64750;52.134;5.424;2023-02-22T06:46:37;101471.31;;;6.44;85.83
72086;BME280;64750;52.134;5.424;2023-02-22T06:49:04;101470.34;;;6.46;86.15
72086;BME280;64750;52.134;5.424;2023-02-22T06:51:35;101465.00;;;6.49;86.29
72086;BME280;64750;52.134;5.424;2023-02-22T06:54:03;101455.47;;;6.48;86.24
72086;BME280;64750;52.134;5.424;2023-02-22T06:56:29;101453.75;;;6.47;86.32
72086;BME280;64750;52.134;5.424;2023-02-22T06:58:56;101462.50;;;6.46;86.08
72086;BME280;64750;52.134;5.424;2023-02-22T07:01:22;101465.13;;;6.46;86.35
72086;BME280;64750;52.134;5.424;2023-02-22T07:03:49;101456.47;;;6.44;86.10
72086;BME280;64750;52.134;5.424;2023-02-22T07:06:15;101458.28;;;6.42;86.36
72086;BME280;64750;52.134;5.424;2023-02-22T07:08:41;101461.00;;;6.39;86.19
72086;BME280;64750;52.134;5.424;2023-02-22T07:11:08;101460.94;;;6.40;86.57
72086;BME280;64750;52.134;5.424;2023-02-22T07:13:34;101455.72;;;6.40;86.36
72086;BME280;64750;52.134;5.424;2023-02-22T07:16:00;101459.22;;;6.39;86.47
72086;BME280;64750;52.134;5.424;2023-02-22T07:18:27;101452.25;;;6.40;86.46
72086;BME280;64750;52.134;5.424;2023-02-22T07:20:56;101452.31;;;6.38;86.21
72086;BME280;64750;52.134;5.424;2023-02-22T07:23:23;101464.66;;;6.33;86.56
72086;BME280;64750;52.134;5.424;2023-02-22T07:25:50;101462.09;;;6.32;86.62
72086;BME280;64750;52.134;5.424;2023-02-22T07:28:16;101470.72;;;6.34;86.63
72086;BME280;64750;52.134;5.424;2023-02-22T07:30:43;101461.13;;;6.34;86.65
72086;BME280;64750;52.134;5.424;2023-02-22T07:33:11;101465.41;;;6.37;86.79
72086;BME280;64750;52.134;5.424;2023-02-22T07:35:46;101464.50;;;6.38;86.74
72086;BME280;64750;52.134;5.424;2023-02-22T07:38:15;101461.84;;;6.39;86.59
72086;BME280;64750;52.134;5.424;2023-02-22T07:40:42;101464.31;;;6.44;86.57
72086;BME280;64750;52.134;5.424;2023-02-22T07:43:15;101464.41;;;6.41;86.62
72086;BME280;64750;52.134;5.424;2023-02-22T07:45:42;101470.63;;;6.37;86.59
72086;BME280;64750;52.134;5.424;2023-02-22T07:48:09;101471.56;;;6.36;86.89
72086;BME280;64750;52.134;5.424;2023-02-22T07:50:38;101468.97;;;6.34;86.82
72086;BME280;64750;52.134;5.424;2023-02-22T07:53:09;101475.13;;;6.33;86.89
72086;BME280;64750;52.134;5.424;2023-02-22T07:55:36;101478.56;;;6.34;86.79
72086;BME280;64750;52.134;5.424;2023-02-22T07:58:07;101480.28;;;6.35;86.84
72086;BME280;64750;52.134;5.424;2023-02-22T08:00:38;101473.28;;;6.35;87.12
72086;BME280;64750;52.134;5.424;2023-02-22T08:03:08;101482.97;;;6.32;86.91
72086;BME280;64750;52.134;5.424;2023-02-22T08:05:36;101483.78;;;6.34;86.92
72086;BME280;64750;52.134;5.424;2023-02-22T08:08:03;101480.22;;;6.36;86.87
72086;BME280;64750;52.134;5.424;2023-02-22T08:10:32;101481.19;;;6.34;87.01
72086;BME280;64750;52.134;5.424;2023-02-22T08:12:58;101487.25;;;6.34;87.10
72086;BME280;64750;52.134;5.424;2023-02-22T08:15:31;101480.28;;;6.35;87.09
72086;BME280;64750;52.134;5.424;2023-02-22T08:17:58;101482.03;;;6.34;87.30
72086;BME280;64750;52.134;5.424;2023-02-22T08:20:27;101481.94;;;6.37;87.51
72086;BME280;64750;52.134;5.424;2023-02-22T08:22:55;101479.28;;;6.39;87.52
72086;BME280;64750;52.134;5.424;2023-02-22T08:25:25;101484.38;;;6.42;87.54
72086;BME280;64750;52.134;5.424;2023-02-22T08:27:56;101475.75;;;6.40;87.46
72086;BME280;64750;52.134;5.424;2023-02-22T08:30:25;101471.31;;;6.42;87.41
72086;BME280;64750;52.134;5.424;2023-02-22T08:32:51;101480.03;;;6.43;87.57
72086;BME280;64750;52.134;5.424;2023-02-22T08:35:18;101476.53;;;6.42;87.40
72086;BME280;64750;52.134;5.424;2023-02-22T08:37:48;101467.03;;;6.41;87.53
72086;BME280;64750;52.134;5.424;2023-02-22T08:40:19;101474.75;;;6.44;87.63
72086;BME280;64750;52.134;5.424;2023-02-22T08:42:46;101470.44;;;6.43;87.59
72086;BME280;64750;52.134;5.424;2023-02-22T08:45:13;101476.47;;;6.45;87.60
72086;BME280;64750;52.134;5.424;2023-02-22T08:47:40;101480.03;;;6.43;87.69
72086;BME280;64750;52.134;5.424;2023-02-22T08:50:08;101474.75;;;6.44;87.73
72086;BME280;64750;52.134;5.424;2023-02-22T08:52:35;101472.13;;;6.44;87.92
72086;BME280;64750;52.134;5.424;2023-02-22T08:55:01;101473.03;;;6.43;87.89
72086;BME280;64750;52.134;5.424;2023-02-22T08:57:28;101470.44;;;6.43;87.83
72086;BME280;64750;52.134;5.424;2023-02-22T08:59:54;101467.69;;;6.48;88.01
72086;BME280;64750;52.134;5.424;2023-02-22T09:02:21;101457.19;;;6.49;88.01
72086;BME280;64750;52.134;5.424;2023-02-22T09:04:48;101451.06;;;6.50;87.66
72086;BME280;64750;52.134;5.424;2023-02-22T09:07:15;101445.78;;;6.52;87.86
72086;BME280;64750;52.134;5.424;2023-02-22T09:09:43;101447.44;;;6.54;87.85
72086;BME280;64750;52.134;5.424;2023-02-22T09:12:10;101445.63;;;6.56;87.64
72086;BME280;64750;52.134;5.424;2023-02-22T09:14:36;101442.16;;;6.56;87.73
72086;BME280;64750;52.134;5.424;2023-02-22T09:17:03;101446.53;;;6.55;87.78
72086;BME280;64750;52.134;5.424;2023-02-22T09:19:31;101442.09;;;6.57;87.83
72086;BME280;64750;52.134;5.424;2023-02-22T09:21:58;101429.84;;;6.60;87.94
72086;BME280;64750;52.134;5.424;2023-02-22T09:24:27;101440.28;;;6.60;87.80
72086;BME280;64750;52.134;5.424;2023-02-22T09:26:53;101441.09;;;6.62;88.04
72086;BME280;64750;52.134;5.424;2023-02-22T09:29:22;101439.25;;;6.65;88.07
72086;BME280;64750;52.134;5.424;2023-02-22T09:31:51;101440.94;;;6.66;87.72
72086;BME280;64750;52.134;5.424;2023-02-22T09:34:19;101434.75;;;6.69;88.10
72086;BME280;64750;52.134;5.424;2023-02-22T09:36:48;101431.16;;;6.71;87.97
72086;BME280;64750;52.134;5.424;2023-02-22T09:39:16;101436.47;;;6.70;87.92
72086;BME280;64750;52.134;5.424;2023-02-22T09:47:17;101425.81;;;6.76;88.09
72086;BME280;64750;52.134;5.424;2023-02-22T09:50:07;101425.69;;;6.79;88.00
72086;BME280;64750;52.134;5.424;2023-02-22T09:57:52;101408.41;;;6.75;87.95
72086;BME280;64750;52.134;5.424;2023-02-22T10:00:23;101397.47;;;6.64;88.39
72086;BME280;64750;52.134;5.424;2023-02-22T10:05:41;101403.63;;;6.63;88.78
72086;BME280;64750;52.134;5.424;2023-02-22T10:08:11;101403.25;;;6.73;88.88
72086;BME280;64750;52.134;5.424;2023-02-22T10:10:41;101396.03;;;6.80;88.86
72086;BME280;64750;52.134;5.424;2023-02-22T10:18:43;101381.66;;;6.94;89.03
72086;BME280;64750;52.134;5.424;2023-02-22T10:21:33;101386.75;;;6.97;88.65
72086;BME280;64750;52.134;5.424;2023-02-22T10:24:30;101384.06;;;6.98;88.43
72086;BME280;64750;52.134;5.424;2023-02-22T10:27:05;101386.53;;;7.03;88.69
72086;BME280;64750;52.134;5.424;2023-02-22T10:29:38;101385.50;;;7.07;88.66
72086;BME280;64750;52.134;5.424;2023-02-22T10:32:14;101386.13;;;7.14;88.60
72086;BME280;64750;52.134;5.424;2023-02-22T10:34:46;101385.22;;;7.15;88.40
72086;BME280;64750;52.134;5.424;2023-02-22T10:37:26;101387.69;;;7.19;88.32
72086;BME280;64750;52.134;5.424;2023-02-22T10:40:09;101389.25;;;7.23;88.35
72086;BME280;64750;52.134;5.424;2023-02-22T10:42:36;101380.50;;;7.25;88.01
72086;BME280;64750;52.134;5.424;2023-02-22T10:45:20;101384.84;;;7.26;88.13
72086;BME280;64750;52.134;5.424;2023-02-22T10:47:50;101382.09;;;7.29;88.29
72086;BME280;64750;52.134;5.424;2023-02-22T10:50:20;101383.69;;;7.33;88.01
72086;BME280;64750;52.134;5.424;2023-02-22T10:52:48;101390.63;;;7.34;88.06
72086;BME280;64750;52.134;5.424;2023-02-22T10:55:14;101392.25;;;7.36;87.63
72086;BME280;64750;52.134;5.424;2023-02-22T10:57:45;101373.97;;;7.36;87.53
72086;BME280;64750;52.134;5.424;2023-02-22T11:02:56;101379.88;;;7.42;87.53
72086;BME280;64750;52.134;5.424;2023-02-22T11:05:36;101387.56;;;7.45;87.72
72086;BME280;64750;52.134;5.424;2023-02-22T11:10:42;101370.06;;;7.47;87.49
72086;BME280;64750;52.134;5.424;2023-02-22T11:13:16;101377.84;;;7.48;87.50
72086;BME280;64750;52.134;5.424;2023-02-22T11:15:43;101378.66;;;7.50;87.62
72086;BME280;64750;52.134;5.424;2023-02-22T11:18:26;101368.13;;;7.52;87.30
72086;BME280;64750;52.134;5.424;2023-02-22T11:21:03;101367.16;;;7.54;87.54
72086;BME280;64750;52.134;5.424;2023-02-22T11:23:31;101364.53;;;7.54;87.70
72086;BME280;64750;52.134;5.424;2023-02-22T11:26:05;101366.25;;;7.55;87.77
72086;BME280;64750;52.134;5.424;2023-02-22T11:28:33;101368.81;;;7.57;87.67
72086;BME280;64750;52.134;5.424;2023-02-22T11:31:24;101366.94;;;7.61;87.92
72086;BME280;64750;52.134;5.424;2023-02-22T11:33:56;101375.59;;;7.63;87.78
72086;BME280;64750;52.134;5.424;2023-02-22T11:36:38;101362.44;;;7.64;87.84
72086;BME280;64750;52.134;5.424;2023-02-22T11:39:28;101358.84;;;7.67;87.88
72086;BME280;64750;52.134;5.424;2023-02-22T11:41:55;101355.25;;;7.69;87.63
72086;BME280;64750;52.134;5.424;2023-02-22T11:46:51;101359.38;;;7.75;87.92
72086;BME280;64750;52.134;5.424;2023-02-22T11:49:23;101347.94;;;7.78;87.37
72086;BME280;64750;52.134;5.424;2023-02-22T11:57:59;101333.81;;;7.82;86.60
72086;BME280;64750;52.134;5.424;2023-02-22T12:06:08;101330.28;;;7.83;86.23
72086;BME280;64750;52.134;5.424;2023-02-22T12:11:33;101324.06;;;7.85;86.25
72086;BME280;64750;52.134;5.424;2023-02-22T12:14:08;101324.06;;;7.85;86.64
72086;BME280;64750;52.134;5.424;2023-02-22T12:19:34;101331.00;;;7.86;86.59
72086;BME280;64750;52.134;5.424;2023-02-22T12:22:09;101324.81;;;7.89;86.82
72086;BME280;64750;52.134;5.424;2023-02-22T12:24:48;101329.97;;;7.91;87.16
72086;BME280;64750;52.134;5.424;2023-02-22T12:27:36;101325.53;;;7.93;87.09
72086;BME280;64750;52.134;5.424;2023-02-22T12:30:12;101319.38;;;7.94;87.14
72086;BME280;64750;52.134;5.424;2023-02-22T12:32:45;101321.88;;;7.97;87.04
72086;BME280;64750;52.134;5.424;2023-02-22T12:35:27;101320.13;;;7.97;87.25
72086;BME280;64750;52.134;5.424;2023-02-22T12:38:18;101311.28;;;8.00;87.28
72086;BME280;64750;52.134;5.424;2023-02-22T12:41:04;101305.91;;;8.03;87.50
72086;BME280;64750;52.134;5.424;2023-02-22T12:44:00;101304.09;;;8.05;87.32
72086;BME280;64750;52.134;5.424;2023-02-22T12:46:48;101310.09;;;8.07;87.10
72086;BME280;64750;52.134;5.424;2023-02-22T12:49:38;101303.03;;;8.09;87.40
72086;BME280;64750;52.134;5.424;2023-02-22T12:52:12;101312.47;;;8.13;87.32
72086;BME280;64750;52.134;5.424;2023-02-22T12:54:55;101302.78;;;8.15;87.03
72086;BME280;64750;52.134;5.424;2023-02-22T12:57:36;101300.94;;;8.17;86.58
72086;BME280;64750;52.134;5.424;2023-02-22T13:00:17;101295.59;;;8.20;86.98
72086;BME280;64750;52.134;5.424;2023-02-22T13:05:39;101292.88;;;8.22;86.55
72086;BME280;64750;52.134;5.424;2023-02-22T13:16:06;101291.75;;;8.28;86.97
72086;BME280;64750;52.134;5.424;2023-02-22T13:21:48;101294.25;;;8.31;86.96
72086;BME280;64750;52.134;5.424;2023-02-22T13:30:18;101293.66;;;8.45;86.25
72086;BME280;64750;52.134;5.424;2023-02-22T13:32:56;101283.97;;;8.47;86.08
72086;BME280;64750;52.134;5.424;2023-02-22T13:35:55;101286.53;;;8.48;86.15
72086;BME280;64750;52.134;5.424;2023-02-22T13:41:42;101288.13;;;8.52;86.21
72086;BME280;64750;52.134;5.424;2023-02-22T13:46:51;101292.38;;;8.55;86.47
72086;BME280;64750;52.134;5.424;2023-02-22T13:52:17;101280.94;;;8.56;86.44
72086;BME280;64750;52.134;5.424;2023-02-22T13:54:50;101294.91;;;8.57;86.12
72086;BME280;64750;52.134;5.424;2023-02-22T13:57:26;101286.97;;;8.58;86.21
72086;BME280;64750;52.134;5.424;2023-02-22T14:13:09;101289.41;;;8.63;85.85
72086;BME280;64750;52.134;5.424;2023-02-22T14:15:35;101298.09;;;8.63;85.67
72086;BME280;64750;52.134;5.424;2023-02-22T14:18:23;101297.28;;;8.63;85.47
72086;BME280;64750;52.134;5.424;2023-02-22T14:21:13;101298.94;;;8.64;85.84
72086;BME280;64750;52.134;5.424;2023-02-22T14:23:45;101298.03;;;8.65;85.93
72086;BME280;64750;52.134;5.424;2023-02-22T14:28:49;101304.16;;;8.65;85.96
72086;BME280;64750;52.134;5.424;2023-02-22T14:31:23;101299.75;;;8.66;85.84
72086;BME280;64750;52.134;5.424;2023-02-22T14:34:18;101307.59;;;8.66;85.83
72086;BME280;64750;52.134;5.424;2023-02-22T14:36:55;101315.38;;;8.67;85.46
72086;BME280;64750;52.134;5.424;2023-02-22T14:39:46;101314.56;;;8.67;85.57
72086;BME280;64750;52.134;5.424;2023-02-22T14:42:30;101313.63;;;8.68;85.39
72086;BME280;64750;52.134;5.424;2023-02-22T14:45:24;101314.47;;;8.68;85.72
72086;BME280;64750;52.134;5.424;2023-02-22T14:48:03;101314.31;;;8.72;85.36
72086;BME280;64750;52.134;5.424;2023-02-22T14:53:18;101306.41;;;8.73;85.33
72086;BME280;64750;52.134;5.424;2023-02-22T14:55:59;101307.25;;;8.74;85.07
72086;BME280;64750;52.134;5.424;2023-02-22T14:58:35;101305.47;;;8.74;85.26
72086;BME280;64750;52.134;5.424;2023-02-22T15:03:47;101306.34;;;8.75;85.14
72086;BME280;64750;52.134;5.424;2023-02-22T15:06:28;101308.88;;;8.76;84.88
72086;BME280;64750;52.134;5.424;2023-02-22T15:11:32;101298.47;;;8.75;85.27
72086;BME280;64750;52.134;5.424;2023-02-22T15:14:00;101301.94;;;8.75;84.98
72086;BME280;64750;52.134;5.424;2023-02-22T15:16:31;101294.06;;;8.75;85.18
72086;BME280;64750;52.134;5.424;2023-02-22T15:19:03;101303.66;;;8.76;85.36
72086;BME280;64750;52.134;5.424;2023-02-22T15:21:33;101305.34;;;8.77;85.17
72086;BME280;64750;52.134;5.424;2023-02-22T15:24:04;101296.63;;;8.77;85.47
72086;BME280;64750;52.134;5.424;2023-02-22T15:26:36;101297.50;;;8.77;85.60
72086;BME280;64750;52.134;5.424;2023-02-22T15:29:17;101298.41;;;8.76;85.23
72086;BME280;64750;52.134;5.424;2023-02-22T15:31:44;101297.50;;;8.77;85.41
72086;BME280;64750;52.134;5.424;2023-02-22T15:36:41;101300.94;;;8.78;85.79